sensor_id;sensor_type;location;lat;lon;timestamp;P1;durP1;ratioP1;P2;durP2;ratioP2
63690;SDS011;49837;57.280;27.070;2023-07-24T00:00:54;6.0;;;3.9;;
63690;SDS011;49837;57.280;27.070;2023-07-24T00:01:55;5.6;;;3.7;;
63690;SDS011;49837;57.280;27.070;2023-07-24T00:02:55;8.3;;;3.6;;
63690;SDS011;49837;57.280;27.070;2023-07-24T00:03:56;6.8;;;4.1;;
63690;SDS011;49837;57.280;27.070;2023-07-24T00:04:56;8.6;;;4.0;;
63690;SDS011;49837;57.280;27.070;2023-07-24T00:06:00;8.2;;;3.9;;
63690;SDS011;49837;57.280;27.070;2023-07-24T00:06:57;7.2;;;4.0;;
63690;SDS011;49837;57.280;27.070;2023-07-24T00:07:57;5.7;;;3.8;;
63690;SDS011;49837;57.280;27.070;2023-07-24T00:08:58;7.1;;;4.1;;
63690;SDS011;49837;57.280;27.070;2023-07-24T00:09:58;7.4;;;3.9;;
63690;SDS011;49837;57.280;27.070;2023-07-24T00:10:59;7.5;;;4.0;;
63690;SDS011;49837;57.280;27.070;2023-07-24T00:11:59;7.8;;;4.3;;
63690;SDS011;49837;57.280;27.070;2023-07-24T00:13:00;5.7;;;3.8;;
63690;SDS011;49837;57.280;27.070;2023-07-24T00:14:00;5.5;;;3.8;;
63690;SDS011;49837;57.280;27.070;2023-07-24T00:15:01;9.1;;;4.0;;
63690;SDS011;49837;57.280;27.070;2023-07-24T00:16:05;7.4;;;3.8;;
63690;SDS011;49837;57.280;27.070;2023-07-24T00:17:04;5.9;;;4.0;;
63690;SDS011;49837;57.280;27.070;2023-07-24T00:18:04;7.0;;;3.7;;
63690;SDS011;49837;57.280;27.070;2023-07-24T00:19:05;7.0;;;3.8;;
63690;SDS011;49837;57.280;27.070;2023-07-24T00:20:05;6.6;;;3.6;;
63690;SDS011;49837;57.280;27.070;2023-07-24T00:21:06;7.9;;;4.1;;
63690;SDS011;49837;57.280;27.070;2023-07-24T00:22:06;13.3;;;4.0;;
63690;SDS011;49837;57.280;27.070;2023-07-24T00:23:07;7.6;;;4.3;;
63690;SDS011;49837;57.280;27.070;2023-07-24T00:24:07;8.6;;;3.8;;
63690;SDS011;49837;57.280;27.070;2023-07-24T00:25:07;6.7;;;3.6;;
63690;SDS011;49837;57.280;27.070;2023-07-24T00:26:08;5.7;;;3.6;;
63690;SDS011;49837;57.280;27.070;2023-07-24T00:27:08;8.6;;;4.1;;
63690;SDS011;49837;57.280;27.070;2023-07-24T00:28:09;7.3;;;3.8;;
63690;SDS011;49837;57.280;27.070;2023-07-24T00:29:09;7.2;;;3.7;;
63690;SDS011;49837;57.280;27.070;2023-07-24T00:30:10;10.1;;;3.9;;
63690;SDS011;49837;57.280;27.070;2023-07-24T00:31:10;8.0;;;4.0;;
63690;SDS011;49837;57.280;27.070;2023-07-24T00:32:11;7.6;;;3.9;;
63690;SDS011;49837;57.280;27.070;2023-07-24T00:33:11;6.1;;;3.9;;
63690;SDS011;49837;57.280;27.070;2023-07-24T00:34:11;7.5;;;3.9;;
63690;SDS011;49837;57.280;27.070;2023-07-24T00:35:12;6.6;;;3.7;;
63690;SDS011;49837;57.280;27.070;2023-07-24T00:36:12;6.0;;;3.8;;
63690;SDS011;49837;57.280;27.070;2023-07-24T00:37:13;8.7;;;4.2;;
63690;SDS011;49837;57.280;27.070;2023-07-24T00:38:13;9.1;;;3.9;;
63690;SDS011;49837;57.280;27.070;2023-07-24T00:39:14;7.8;;;3.8;;
63690;SDS011;49837;57.280;27.070;2023-07-24T00:40:14;8.4;;;4.1;;
63690;SDS011;49837;57.280;27.070;2023-07-24T00:41:15;8.0;;;4.0;;
63690;SDS011;49837;57.280;27.070;2023-07-24T00:42:16;7.8;;;3.7;;
63690;SDS011;49837;57.280;27.070;2023-07-24T00:43:16;7.5;;;3.7;;
63690;SDS011;49837;57.280;27.070;2023-07-24T00:44:18;7.8;;;4.0;;
63690;SDS011;49837;57.280;27.070;2023-07-24T00:45:17;8.6;;;3.9;;
63690;SDS011;49837;57.280;27.070;2023-07-24T00:46:18;9.9;;;3.9;;
63690;SDS011;49837;57.280;27.070;2023-07-24T00:47:18;6.9;;;4.0;;
63690;SDS011;49837;57.280;27.070;2023-07-24T00:48:19;7.7;;;4.0;;
63690;SDS011;49837;57.280;27.070;2023-07-24T00:49:19;7.0;;;3.9;;
63690;SDS011;49837;57.280;27.070;2023-07-24T00:50:20;6.1;;;3.5;;
63690;SDS011;49837;57.280;27.070;2023-07-24T00:51:20;7.4;;;3.7;;
63690;SDS011;49837;57.280;27.070;2023-07-24T00:52:21;6.5;;;4.0;;
63690;SDS011;49837;57.280;27.070;2023-07-24T00:53:21;10.2;;;4.1;;
63690;SDS011;49837;57.280;27.070;2023-07-24T00:54:21;8.2;;;4.1;;
63690;SDS011;49837;57.280;27.070;2023-07-24T00:55:22;7.5;;;4.0;;
63690;SDS011;49837;57.280;27.070;2023-07-24T00:56:23;8.2;;;4.2;;
63690;SDS011;49837;57.280;27.070;2023-07-24T00:57:23;6.7;;;4.2;;
63690;SDS011;49837;57.280;27.070;2023-07-24T00:58:23;8.6;;;4.1;;
63690;SDS011;49837;57.280;27.070;2023-07-24T00:59:24;6.1;;;4.0;;
63690;SDS011;49837;57.280;27.070;2023-07-24T01:00:24;6.4;;;4.0;;
63690;SDS011;49837;57.280;27.070;2023-07-24T01:01:25;7.5;;;4.1;;
63690;SDS011;49837;57.280;27.070;2023-07-24T01:02:25;6.6;;;3.6;;
63690;SDS011;49837;57.280;27.070;2023-07-24T01:03:27;8.1;;;3.9;;
63690;SDS011;49837;57.280;27.070;2023-07-24T01:04:30;6.6;;;4.2;;
63690;SDS011;49837;57.280;27.070;2023-07-24T01:05:30;6.7;;;3.7;;
63690;SDS011;49837;57.280;27.070;2023-07-24T01:06:31;6.1;;;3.9;;
63690;SDS011;49837;57.280;27.070;2023-07-24T01:07:31;7.8;;;3.8;;
63690;SDS011;49837;57.280;27.070;2023-07-24T01:08:32;8.3;;;3.7;;
63690;SDS011;49837;57.280;27.070;2023-07-24T01:09:32;5.6;;;3.7;;
63690;SDS011;49837;57.280;27.070;2023-07-24T01:10:32;7.0;;;3.9;;
63690;SDS011;49837;57.280;27.070;2023-07-24T01:11:36;8.4;;;4.2;;
63690;SDS011;49837;57.280;27.070;2023-07-24T01:12:45;6.6;;;4.0;;
63690;SDS011;49837;57.280;27.070;2023-07-24T01:13:40;7.7;;;3.9;;
63690;SDS011;49837;57.280;27.070;2023-07-24T01:14:47;6.6;;;3.8;;
63690;SDS011;49837;57.280;27.070;2023-07-24T01:15:50;8.6;;;4.0;;
63690;SDS011;49837;57.280;27.070;2023-07-24T01:16:48;6.0;;;3.8;;
63690;SDS011;49837;57.280;27.070;2023-07-24T01:17:54;8.0;;;4.2;;
63690;SDS011;49837;57.280;27.070;2023-07-24T01:18:52;8.5;;;3.8;;
63690;SDS011;49837;57.280;27.070;2023-07-24T01:19:54;7.1;;;3.7;;
63690;SDS011;49837;57.280;27.070;2023-07-24T01:20:53;8.2;;;3.8;;
63690;SDS011;49837;57.280;27.070;2023-07-24T01:21:58;6.6;;;3.7;;
63690;SDS011;49837;57.280;27.070;2023-07-24T01:26:05;9.0;;;4.2;;
63690;SDS011;49837;57.280;27.070;2023-07-24T01:27:06;6.4;;;4.0;;
63690;SDS011;49837;57.280;27.070;2023-07-24T01:28:06;8.8;;;3.7;;
63690;SDS011;49837;57.280;27.070;2023-07-24T01:29:06;7.3;;;3.9;;
63690;SDS011;49837;57.280;27.070;2023-07-24T01:30:07;6.3;;;3.8;;
63690;SDS011;49837;57.280;27.070;2023-07-24T01:31:07;8.3;;;4.0;;
63690;SDS011;49837;57.280;27.070;2023-07-24T01:32:08;7.1;;;3.8;;
63690;SDS011;49837;57.280;27.070;2023-07-24T01:33:08;12.8;;;4.3;;
63690;SDS011;49837;57.280;27.070;2023-07-24T01:34:08;7.9;;;4.3;;
63690;SDS011;49837;57.280;27.070;2023-07-24T01:35:09;7.1;;;4.2;;
63690;SDS011;49837;57.280;27.070;2023-07-24T01:36:09;7.3;;;3.9;;
63690;SDS011;49837;57.280;27.070;2023-07-24T01:37:10;8.9;;;4.0;;
63690;SDS011;49837;57.280;27.070;2023-07-24T01:38:14;7.4;;;3.9;;
63690;SDS011;49837;57.280;27.070;2023-07-24T01:39:12;6.6;;;3.9;;
63690;SDS011;49837;57.280;27.070;2023-07-24T01:40:12;7.2;;;4.0;;
63690;SDS011;49837;57.280;27.070;2023-07-24T01:41:12;5.4;;;3.7;;
63690;SDS011;49837;57.280;27.070;2023-07-24T01:42:13;8.6;;;4.4;;
63690;SDS011;49837;57.280;27.070;2023-07-24T01:43:14;5.9;;;3.9;;
63690;SDS011;49837;57.280;27.070;2023-07-24T01:44:14;9.3;;;4.2;;
63690;SDS011;49837;57.280;27.070;2023-07-24T01:45:14;7.5;;;3.9;;
63690;SDS011;49837;57.280;27.070;2023-07-24T01:46:15;8.2;;;4.1;;
63690;SDS011;49837;57.280;27.070;2023-07-24T01:47:15;9.0;;;4.2;;
63690;SDS011;49837;57.280;27.070;2023-07-24T01:48:16;8.3;;;4.2;;
63690;SDS011;49837;57.280;27.070;2023-07-24T01:49:17;10.0;;;4.3;;
63690;SDS011;49837;57.280;27.070;2023-07-24T01:50:18;9.0;;;4.2;;
63690;SDS011;49837;57.280;27.070;2023-07-24T01:51:18;10.5;;;4.3;;
63690;SDS011;49837;57.280;27.070;2023-07-24T01:52:19;6.9;;;4.4;;
63690;SDS011;49837;57.280;27.070;2023-07-24T01:53:19;6.5;;;4.0;;
63690;SDS011;49837;57.280;27.070;2023-07-24T01:54:19;6.8;;;4.2;;
63690;SDS011;49837;57.280;27.070;2023-07-24T01:55:20;5.7;;;3.7;;
63690;SDS011;49837;57.280;27.070;2023-07-24T01:56:21;8.9;;;4.1;;
63690;SDS011;49837;57.280;27.070;2023-07-24T01:57:21;8.7;;;4.3;;
63690;SDS011;49837;57.280;27.070;2023-07-24T01:58:21;7.4;;;4.1;;
63690;SDS011;49837;57.280;27.070;2023-07-24T01:59:22;6.5;;;4.1;;
63690;SDS011;49837;57.280;27.070;2023-07-24T02:00:22;8.6;;;4.1;;
63690;SDS011;49837;57.280;27.070;2023-07-24T02:01:23;9.5;;;4.4;;
63690;SDS011;49837;57.280;27.070;2023-07-24T02:02:23;9.1;;;4.3;;
63690;SDS011;49837;57.280;27.070;2023-07-24T02:03:23;8.0;;;4.2;;
63690;SDS011;49837;57.280;27.070;2023-07-24T02:04:24;7.3;;;4.0;;
63690;SDS011;49837;57.280;27.070;2023-07-24T02:05:25;8.1;;;4.4;;
63690;SDS011;49837;57.280;27.070;2023-07-24T02:06:25;9.6;;;4.4;;
63690;SDS011;49837;57.280;27.070;2023-07-24T02:07:25;11.8;;;4.9;;
63690;SDS011;49837;57.280;27.070;2023-07-24T02:08:26;8.6;;;4.3;;
63690;SDS011;49837;57.280;27.070;2023-07-24T02:09:26;8.1;;;4.5;;
63690;SDS011;49837;57.280;27.070;2023-07-24T02:10:27;7.0;;;4.2;;
63690;SDS011;49837;57.280;27.070;2023-07-24T02:11:27;8.2;;;4.3;;
63690;SDS011;49837;57.280;27.070;2023-07-24T02:12:27;6.6;;;4.3;;
63690;SDS011;49837;57.280;27.070;2023-07-24T02:13:28;5.9;;;4.0;;
63690;SDS011;49837;57.280;27.070;2023-07-24T02:14:28;7.0;;;4.3;;
63690;SDS011;49837;57.280;27.070;2023-07-24T02:15:29;7.7;;;4.3;;
63690;SDS011;49837;57.280;27.070;2023-07-24T02:16:29;6.1;;;4.1;;
63690;SDS011;49837;57.280;27.070;2023-07-24T02:17:30;6.9;;;4.3;;
63690;SDS011;49837;57.280;27.070;2023-07-24T02:18:30;7.1;;;4.3;;
63690;SDS011;49837;57.280;27.070;2023-07-24T02:19:30;9.1;;;4.1;;
63690;SDS011;49837;57.280;27.070;2023-07-24T02:20:31;10.9;;;4.4;;
63690;SDS011;49837;57.280;27.070;2023-07-24T02:21:31;7.5;;;4.2;;
63690;SDS011;49837;57.280;27.070;2023-07-24T02:22:32;6.8;;;3.8;;
63690;SDS011;49837;57.280;27.070;2023-07-24T02:23:32;8.3;;;4.3;;
63690;SDS011;49837;57.280;27.070;2023-07-24T02:24:33;8.7;;;4.2;;
63690;SDS011;49837;57.280;27.070;2023-07-24T02:25:35;7.2;;;4.2;;
63690;SDS011;49837;57.280;27.070;2023-07-24T02:26:34;7.4;;;4.2;;
63690;SDS011;49837;57.280;27.070;2023-07-24T02:27:34;8.3;;;4.7;;
63690;SDS011;49837;57.280;27.070;2023-07-24T02:28:34;6.9;;;4.5;;
63690;SDS011;49837;57.280;27.070;2023-07-24T02:29:35;7.5;;;4.3;;
63690;SDS011;49837;57.280;27.070;2023-07-24T02:30:39;8.7;;;4.3;;
63690;SDS011;49837;57.280;27.070;2023-07-24T02:31:36;9.5;;;4.5;;
63690;SDS011;49837;57.280;27.070;2023-07-24T02:32:37;8.6;;;3.9;;
63690;SDS011;49837;57.280;27.070;2023-07-24T02:33:37;7.1;;;4.2;;
63690;SDS011;49837;57.280;27.070;2023-07-24T02:34:38;8.0;;;4.2;;
63690;SDS011;49837;57.280;27.070;2023-07-24T02:35:39;6.2;;;4.1;;
63690;SDS011;49837;57.280;27.070;2023-07-24T02:36:39;8.8;;;4.2;;
63690;SDS011;49837;57.280;27.070;2023-07-24T02:37:39;8.0;;;4.3;;
63690;SDS011;49837;57.280;27.070;2023-07-24T02:38:39;7.5;;;4.5;;
63690;SDS011;49837;57.280;27.070;2023-07-24T02:39:40;8.0;;;3.9;;
63690;SDS011;49837;57.280;27.070;2023-07-24T02:40:40;7.1;;;4.2;;
63690;SDS011;49837;57.280;27.070;2023-07-24T02:41:41;7.2;;;4.2;;
63690;SDS011;49837;57.280;27.070;2023-07-24T02:42:41;7.9;;;4.0;;
63690;SDS011;49837;57.280;27.070;2023-07-24T02:43:42;9.2;;;3.8;;
63690;SDS011;49837;57.280;27.070;2023-07-24T02:44:43;8.5;;;4.0;;
63690;SDS011;49837;57.280;27.070;2023-07-24T02:45:43;9.2;;;4.3;;
63690;SDS011;49837;57.280;27.070;2023-07-24T02:46:44;7.9;;;4.0;;
63690;SDS011;49837;57.280;27.070;2023-07-24T02:47:44;8.9;;;4.2;;
63690;SDS011;49837;57.280;27.070;2023-07-24T02:48:44;6.8;;;3.7;;
63690;SDS011;49837;57.280;27.070;2023-07-24T02:49:45;9.0;;;3.9;;
63690;SDS011;49837;57.280;27.070;2023-07-24T02:50:47;8.7;;;4.0;;
63690;SDS011;49837;57.280;27.070;2023-07-24T02:51:46;8.6;;;4.1;;
63690;SDS011;49837;57.280;27.070;2023-07-24T02:52:46;10.3;;;3.8;;
63690;SDS011;49837;57.280;27.070;2023-07-24T02:53:47;10.2;;;4.1;;
63690;SDS011;49837;57.280;27.070;2023-07-24T02:54:48;12.9;;;4.7;;
63690;SDS011;49837;57.280;27.070;2023-07-24T02:55:49;7.0;;;3.7;;
63690;SDS011;49837;57.280;27.070;2023-07-24T02:56:50;6.5;;;4.1;;
63690;SDS011;49837;57.280;27.070;2023-07-24T02:57:50;8.8;;;4.1;;
63690;SDS011;49837;57.280;27.070;2023-07-24T02:58:50;7.7;;;3.6;;
63690;SDS011;49837;57.280;27.070;2023-07-24T02:59:51;7.7;;;3.8;;
63690;SDS011;49837;57.280;27.070;2023-07-24T03:00:51;9.1;;;3.7;;
63690;SDS011;49837;57.280;27.070;2023-07-24T03:01:51;6.6;;;3.9;;
63690;SDS011;49837;57.280;27.070;2023-07-24T03:02:52;5.8;;;3.9;;
63690;SDS011;49837;57.280;27.070;2023-07-24T03:03:52;6.7;;;4.1;;
63690;SDS011;49837;57.280;27.070;2023-07-24T03:04:53;7.0;;;3.9;;
63690;SDS011;49837;57.280;27.070;2023-07-24T03:05:53;7.0;;;3.8;;
63690;SDS011;49837;57.280;27.070;2023-07-24T03:06:54;8.0;;;4.0;;
63690;SDS011;49837;57.280;27.070;2023-07-24T03:07:54;6.4;;;3.7;;
63690;SDS011;49837;57.280;27.070;2023-07-24T03:08:55;8.3;;;3.9;;
63690;SDS011;49837;57.280;27.070;2023-07-24T03:09:55;8.7;;;4.0;;
63690;SDS011;49837;57.280;27.070;2023-07-24T03:10:56;11.6;;;4.5;;
63690;SDS011;49837;57.280;27.070;2023-07-24T03:11:56;7.4;;;4.2;;
63690;SDS011;49837;57.280;27.070;2023-07-24T03:12:56;7.3;;;3.6;;
63690;SDS011;49837;57.280;27.070;2023-07-24T03:13:57;8.5;;;4.1;;
63690;SDS011;49837;57.280;27.070;2023-07-24T03:14:57;6.9;;;3.4;;
63690;SDS011;49837;57.280;27.070;2023-07-24T03:15:58;7.8;;;3.6;;
63690;SDS011;49837;57.280;27.070;2023-07-24T03:16:58;7.6;;;3.7;;
63690;SDS011;49837;57.280;27.070;2023-07-24T03:17:59;11.2;;;3.9;;
63690;SDS011;49837;57.280;27.070;2023-07-24T03:18:59;8.9;;;4.0;;
63690;SDS011;49837;57.280;27.070;2023-07-24T03:20:07;7.3;;;3.7;;
63690;SDS011;49837;57.280;27.070;2023-07-24T03:21:02;5.9;;;3.5;;
63690;SDS011;49837;57.280;27.070;2023-07-24T03:22:03;9.7;;;3.7;;
63690;SDS011;49837;57.280;27.070;2023-07-24T03:23:03;7.7;;;3.6;;
63690;SDS011;49837;57.280;27.070;2023-07-24T03:24:04;8.6;;;3.9;;
63690;SDS011;49837;57.280;27.070;2023-07-24T03:25:04;8.1;;;3.6;;
63690;SDS011;49837;57.280;27.070;2023-07-24T03:26:04;8.0;;;3.8;;
63690;SDS011;49837;57.280;27.070;2023-07-24T03:27:05;8.6;;;3.9;;
63690;SDS011;49837;57.280;27.070;2023-07-24T03:28:05;6.0;;;3.9;;
63690;SDS011;49837;57.280;27.070;2023-07-24T03:29:06;6.0;;;3.5;;
63690;SDS011;49837;57.280;27.070;2023-07-24T03:30:06;8.7;;;3.9;;
63690;SDS011;49837;57.280;27.070;2023-07-24T03:31:06;6.1;;;3.6;;
63690;SDS011;49837;57.280;27.070;2023-07-24T03:32:07;5.5;;;3.3;;
63690;SDS011;49837;57.280;27.070;2023-07-24T03:33:07;6.6;;;3.6;;
63690;SDS011;49837;57.280;27.070;2023-07-24T03:34:08;12.0;;;3.7;;
63690;SDS011;49837;57.280;27.070;2023-07-24T03:35:08;6.5;;;3.6;;
63690;SDS011;49837;57.280;27.070;2023-07-24T03:36:09;7.4;;;3.6;;
63690;SDS011;49837;57.280;27.070;2023-07-24T03:37:10;6.5;;;3.4;;
63690;SDS011;49837;57.280;27.070;2023-07-24T03:38:10;6.1;;;3.3;;
63690;SDS011;49837;57.280;27.070;2023-07-24T03:39:11;5.4;;;3.4;;
63690;SDS011;49837;57.280;27.070;2023-07-24T03:40:12;6.6;;;3.6;;
63690;SDS011;49837;57.280;27.070;2023-07-24T03:41:12;7.3;;;3.5;;
63690;SDS011;49837;57.280;27.070;2023-07-24T03:42:23;5.6;;;3.3;;
63690;SDS011;49837;57.280;27.070;2023-07-24T03:43:18;5.3;;;3.2;;
63690;SDS011;49837;57.280;27.070;2023-07-24T03:44:18;5.8;;;3.3;;
63690;SDS011;49837;57.280;27.070;2023-07-24T03:45:19;6.8;;;3.1;;
63690;SDS011;49837;57.280;27.070;2023-07-24T03:46:19;6.5;;;3.2;;
63690;SDS011;49837;57.280;27.070;2023-07-24T03:47:19;5.4;;;3.1;;
63690;SDS011;49837;57.280;27.070;2023-07-24T03:48:20;6.2;;;3.3;;
63690;SDS011;49837;57.280;27.070;2023-07-24T03:49:20;7.5;;;3.2;;
63690;SDS011;49837;57.280;27.070;2023-07-24T03:50:21;5.3;;;3.2;;
63690;SDS011;49837;57.280;27.070;2023-07-24T03:51:21;5.5;;;3.2;;
63690;SDS011;49837;57.280;27.070;2023-07-24T03:52:22;6.5;;;3.1;;
63690;SDS011;49837;57.280;27.070;2023-07-24T03:53:22;5.0;;;3.3;;
63690;SDS011;49837;57.280;27.070;2023-07-24T03:54:23;5.5;;;3.2;;
63690;SDS011;49837;57.280;27.070;2023-07-24T03:55:23;6.7;;;3.3;;
63690;SDS011;49837;57.280;27.070;2023-07-24T03:56:24;5.7;;;3.2;;
63690;SDS011;49837;57.280;27.070;2023-07-24T03:57:25;5.5;;;3.0;;
63690;SDS011;49837;57.280;27.070;2023-07-24T03:58:24;6.2;;;3.1;;
63690;SDS011;49837;57.280;27.070;2023-07-24T03:59:25;5.4;;;3.1;;
63690;SDS011;49837;57.280;27.070;2023-07-24T04:00:25;7.1;;;3.3;;
63690;SDS011;49837;57.280;27.070;2023-07-24T04:01:26;6.0;;;2.9;;
63690;SDS011;49837;57.280;27.070;2023-07-24T04:02:26;5.2;;;2.7;;
63690;SDS011;49837;57.280;27.070;2023-07-24T04:03:27;5.4;;;3.1;;
63690;SDS011;49837;57.280;27.070;2023-07-24T04:04:27;7.7;;;3.4;;
63690;SDS011;49837;57.280;27.070;2023-07-24T04:05:28;6.6;;;3.2;;
63690;SDS011;49837;57.280;27.070;2023-07-24T04:06:28;5.5;;;3.1;;
63690;SDS011;49837;57.280;27.070;2023-07-24T04:07:28;4.3;;;2.6;;
63690;SDS011;49837;57.280;27.070;2023-07-24T04:08:29;4.3;;;2.9;;
63690;SDS011;49837;57.280;27.070;2023-07-24T04:09:29;6.2;;;3.0;;
63690;SDS011;49837;57.280;27.070;2023-07-24T04:10:30;5.0;;;2.9;;
63690;SDS011;49837;57.280;27.070;2023-07-24T04:11:30;4.9;;;2.9;;
63690;SDS011;49837;57.280;27.070;2023-07-24T04:12:31;4.7;;;3.0;;
63690;SDS011;49837;57.280;27.070;2023-07-24T04:13:31;8.4;;;3.0;;
63690;SDS011;49837;57.280;27.070;2023-07-24T04:14:32;4.9;;;2.9;;
63690;SDS011;49837;57.280;27.070;2023-07-24T04:15:32;5.7;;;3.1;;
63690;SDS011;49837;57.280;27.070;2023-07-24T04:16:33;7.4;;;3.2;;
63690;SDS011;49837;57.280;27.070;2023-07-24T04:17:33;5.9;;;3.1;;
63690;SDS011;49837;57.280;27.070;2023-07-24T04:18:34;4.6;;;2.8;;
63690;SDS011;49837;57.280;27.070;2023-07-24T04:19:34;4.6;;;2.9;;
63690;SDS011;49837;57.280;27.070;2023-07-24T04:20:35;5.4;;;2.9;;
63690;SDS011;49837;57.280;27.070;2023-07-24T04:21:35;5.1;;;2.8;;
63690;SDS011;49837;57.280;27.070;2023-07-24T04:22:35;5.1;;;3.2;;
63690;SDS011;49837;57.280;27.070;2023-07-24T04:23:36;7.4;;;2.6;;
63690;SDS011;49837;57.280;27.070;2023-07-24T04:24:37;5.7;;;3.1;;
63690;SDS011;49837;57.280;27.070;2023-07-24T04:25:37;5.1;;;2.6;;
63690;SDS011;49837;57.280;27.070;2023-07-24T04:26:37;5.3;;;2.8;;
63690;SDS011;49837;57.280;27.070;2023-07-24T04:27:38;5.1;;;2.9;;
63690;SDS011;49837;57.280;27.070;2023-07-24T04:28:38;5.8;;;3.0;;
63690;SDS011;49837;57.280;27.070;2023-07-24T04:29:39;8.2;;;2.9;;
63690;SDS011;49837;57.280;27.070;2023-07-24T04:30:39;5.7;;;2.9;;
63690;SDS011;49837;57.280;27.070;2023-07-24T04:31:40;4.6;;;3.1;;
63690;SDS011;49837;57.280;27.070;2023-07-24T04:32:40;6.8;;;2.9;;
63690;SDS011;49837;57.280;27.070;2023-07-24T04:33:40;5.4;;;3.1;;
63690;SDS011;49837;57.280;27.070;2023-07-24T04:34:41;4.8;;;2.7;;
63690;SDS011;49837;57.280;27.070;2023-07-24T04:35:42;4.8;;;3.0;;
63690;SDS011;49837;57.280;27.070;2023-07-24T04:36:42;4.8;;;2.8;;
63690;SDS011;49837;57.280;27.070;2023-07-24T04:37:42;5.8;;;2.8;;
63690;SDS011;49837;57.280;27.070;2023-07-24T04:38:43;5.1;;;3.0;;
63690;SDS011;49837;57.280;27.070;2023-07-24T04:39:43;5.0;;;2.9;;
63690;SDS011;49837;57.280;27.070;2023-07-24T04:40:44;13.4;;;9.9;;
63690;SDS011;49837;57.280;27.070;2023-07-24T04:41:44;7.9;;;5.2;;
63690;SDS011;49837;57.280;27.070;2023-07-24T04:42:45;5.0;;;2.8;;
63690;SDS011;49837;57.280;27.070;2023-07-24T04:43:45;5.6;;;3.1;;
63690;SDS011;49837;57.280;27.070;2023-07-24T04:44:45;4.1;;;2.7;;
63690;SDS011;49837;57.280;27.070;2023-07-24T04:45:46;5.6;;;2.8;;
63690;SDS011;49837;57.280;27.070;2023-07-24T04:46:46;4.0;;;2.7;;
63690;SDS011;49837;57.280;27.070;2023-07-24T04:47:47;4.4;;;2.7;;
63690;SDS011;49837;57.280;27.070;2023-07-24T04:48:47;5.5;;;2.8;;
63690;SDS011;49837;57.280;27.070;2023-07-24T04:49:48;4.3;;;2.6;;
63690;SDS011;49837;57.280;27.070;2023-07-24T04:50:54;4.3;;;2.6;;
63690;SDS011;49837;57.280;27.070;2023-07-24T04:51:52;4.4;;;2.7;;
63690;SDS011;49837;57.280;27.070;2023-07-24T04:52:53;3.8;;;2.5;;
63690;SDS011;49837;57.280;27.070;2023-07-24T04:53:53;4.1;;;2.5;;
63690;SDS011;49837;57.280;27.070;2023-07-24T04:54:54;5.5;;;2.4;;
63690;SDS011;49837;57.280;27.070;2023-07-24T04:55:54;5.4;;;2.5;;
63690;SDS011;49837;57.280;27.070;2023-07-24T04:56:55;3.6;;;2.3;;
63690;SDS011;49837;57.280;27.070;2023-07-24T04:57:56;3.8;;;2.3;;
63690;SDS011;49837;57.280;27.070;2023-07-24T04:58:56;3.5;;;2.3;;
63690;SDS011;49837;57.280;27.070;2023-07-24T04:59:56;5.3;;;2.5;;
63690;SDS011;49837;57.280;27.070;2023-07-24T05:00:57;5.4;;;2.2;;
63690;SDS011;49837;57.280;27.070;2023-07-24T05:01:57;3.8;;;2.4;;
63690;SDS011;49837;57.280;27.070;2023-07-24T05:02:57;3.4;;;2.3;;
63690;SDS011;49837;57.280;27.070;2023-07-24T05:03:58;3.9;;;2.3;;
63690;SDS011;49837;57.280;27.070;2023-07-24T05:04:58;4.6;;;2.4;;
63690;SDS011;49837;57.280;27.070;2023-07-24T05:05:59;5.4;;;2.5;;
63690;SDS011;49837;57.280;27.070;2023-07-24T05:06:59;4.4;;;2.5;;
63690;SDS011;49837;57.280;27.070;2023-07-24T05:08:00;3.7;;;2.3;;
63690;SDS011;49837;57.280;27.070;2023-07-24T05:09:00;3.1;;;2.2;;
63690;SDS011;49837;57.280;27.070;2023-07-24T05:10:01;3.3;;;2.2;;
63690;SDS011;49837;57.280;27.070;2023-07-24T05:11:01;5.2;;;2.4;;
63690;SDS011;49837;57.280;27.070;2023-07-24T05:12:02;4.1;;;2.6;;
63690;SDS011;49837;57.280;27.070;2023-07-24T05:13:02;2.8;;;2.0;;
63690;SDS011;49837;57.280;27.070;2023-07-24T05:14:02;4.7;;;2.2;;
63690;SDS011;49837;57.280;27.070;2023-07-24T05:15:03;4.1;;;2.1;;
63690;SDS011;49837;57.280;27.070;2023-07-24T05:16:03;3.9;;;2.4;;
63690;SDS011;49837;57.280;27.070;2023-07-24T05:17:04;3.6;;;2.3;;
63690;SDS011;49837;57.280;27.070;2023-07-24T05:18:04;5.1;;;2.2;;
63690;SDS011;49837;57.280;27.070;2023-07-24T05:19:05;3.5;;;2.2;;
63690;SDS011;49837;57.280;27.070;2023-07-24T05:20:06;3.3;;;2.2;;
63690;SDS011;49837;57.280;27.070;2023-07-24T05:21:06;3.0;;;2.1;;
63690;SDS011;49837;57.280;27.070;2023-07-24T05:22:06;5.0;;;2.1;;
63690;SDS011;49837;57.280;27.070;2023-07-24T05:23:07;4.1;;;2.3;;
63690;SDS011;49837;57.280;27.070;2023-07-24T05:24:07;3.3;;;2.1;;
63690;SDS011;49837;57.280;27.070;2023-07-24T05:25:08;3.9;;;2.2;;
63690;SDS011;49837;57.280;27.070;2023-07-24T05:26:08;3.3;;;2.2;;
63690;SDS011;49837;57.280;27.070;2023-07-24T05:27:08;2.7;;;2.2;;
63690;SDS011;49837;57.280;27.070;2023-07-24T05:28:09;4.2;;;2.0;;
63690;SDS011;49837;57.280;27.070;2023-07-24T05:29:09;5.1;;;2.3;;
63690;SDS011;49837;57.280;27.070;2023-07-24T05:30:10;4.3;;;2.3;;
63690;SDS011;49837;57.280;27.070;2023-07-24T05:31:10;3.0;;;2.0;;
63690;SDS011;49837;57.280;27.070;2023-07-24T05:32:11;5.4;;;2.1;;
63690;SDS011;49837;57.280;27.070;2023-07-24T05:33:11;3.1;;;2.0;;
63690;SDS011;49837;57.280;27.070;2023-07-24T05:34:12;2.9;;;2.0;;
63690;SDS011;49837;57.280;27.070;2023-07-24T05:35:12;3.3;;;2.1;;
63690;SDS011;49837;57.280;27.070;2023-07-24T05:36:13;4.0;;;2.0;;
63690;SDS011;49837;57.280;27.070;2023-07-24T05:37:13;3.7;;;2.2;;
63690;SDS011;49837;57.280;27.070;2023-07-24T05:38:13;4.1;;;2.0;;
63690;SDS011;49837;57.280;27.070;2023-07-24T05:39:14;2.6;;;2.0;;
63690;SDS011;49837;57.280;27.070;2023-07-24T05:40:14;2.5;;;1.8;;
63690;SDS011;49837;57.280;27.070;2023-07-24T05:41:15;4.9;;;1.9;;
63690;SDS011;49837;57.280;27.070;2023-07-24T05:42:15;3.2;;;2.0;;
63690;SDS011;49837;57.280;27.070;2023-07-24T05:43:16;4.0;;;1.8;;
63690;SDS011;49837;57.280;27.070;2023-07-24T05:44:16;3.2;;;2.0;;
63690;SDS011;49837;57.280;27.070;2023-07-24T05:45:17;4.0;;;2.1;;
63690;SDS011;49837;57.280;27.070;2023-07-24T05:46:17;3.3;;;2.0;;
63690;SDS011;49837;57.280;27.070;2023-07-24T05:47:18;3.6;;;1.8;;
63690;SDS011;49837;57.280;27.070;2023-07-24T05:48:18;3.0;;;1.7;;
63690;SDS011;49837;57.280;27.070;2023-07-24T05:49:19;3.1;;;2.0;;
63690;SDS011;49837;57.280;27.070;2023-07-24T05:50:19;2.6;;;1.7;;
63690;SDS011;49837;57.280;27.070;2023-07-24T05:51:20;2.5;;;1.9;;
63690;SDS011;49837;57.280;27.070;2023-07-24T05:52:20;2.8;;;1.8;;
63690;SDS011;49837;57.280;27.070;2023-07-24T05:53:20;4.6;;;2.0;;
63690;SDS011;49837;57.280;27.070;2023-07-24T05:54:21;3.5;;;1.9;;
63690;SDS011;49837;57.280;27.070;2023-07-24T05:55:22;2.7;;;2.0;;
63690;SDS011;49837;57.280;27.070;2023-07-24T05:56:22;3.0;;;2.1;;
63690;SDS011;49837;57.280;27.070;2023-07-24T05:57:22;4.3;;;2.1;;
63690;SDS011;49837;57.280;27.070;2023-07-24T05:58:23;5.0;;;2.3;;
63690;SDS011;49837;57.280;27.070;2023-07-24T05:59:23;2.7;;;2.0;;
63690;SDS011;49837;57.280;27.070;2023-07-24T06:00:24;2.8;;;2.0;;
63690;SDS011;49837;57.280;27.070;2023-07-24T06:01:24;3.4;;;1.9;;
63690;SDS011;49837;57.280;27.070;2023-07-24T06:02:25;4.5;;;2.3;;
63690;SDS011;49837;57.280;27.070;2023-07-24T06:03:25;4.0;;;2.1;;
63690;SDS011;49837;57.280;27.070;2023-07-24T06:04:26;3.6;;;2.2;;
63690;SDS011;49837;57.280;27.070;2023-07-24T06:05:26;4.6;;;2.0;;
63690;SDS011;49837;57.280;27.070;2023-07-24T06:06:27;6.6;;;2.0;;
63690;SDS011;49837;57.280;27.070;2023-07-24T06:07:27;2.8;;;1.9;;
63690;SDS011;49837;57.280;27.070;2023-07-24T06:08:27;2.9;;;2.0;;
63690;SDS011;49837;57.280;27.070;2023-07-24T06:09:28;3.5;;;2.0;;
63690;SDS011;49837;57.280;27.070;2023-07-24T06:10:28;2.1;;;1.8;;
63690;SDS011;49837;57.280;27.070;2023-07-24T06:11:28;2.9;;;1.9;;
63690;SDS011;49837;57.280;27.070;2023-07-24T06:12:29;1.9;;;1.6;;
63690;SDS011;49837;57.280;27.070;2023-07-24T06:13:29;3.1;;;1.9;;